sensor_id;sensor_type;location;lat;lon;timestamp;pressure;altitude;pressure_sealevel;temperature
68911;BMP180;55953;51.650;-0.522;2022-08-21T00:01:54;100722.80;;;17.20
68911;BMP180;55953;51.650;-0.522;2022-08-21T00:04:22;100719.60;;;17.20
68911;BMP180;55953;51.650;-0.522;2022-08-21T00:06:57;100721.40;;;17.20
68911;BMP180;55953;51.650;-0.522;2022-08-21T00:09:26;100721.20;;;17.10
68911;BMP180;55953;51.650;-0.522;2022-08-21T00:11:54;100721.20;;;17.10
68911;BMP180;55953;51.650;-0.522;2022-08-21T00:14:21;100723.60;;;17.06
68911;BMP180;55953;51.650;-0.522;2022-08-21T00:16:50;100724.20;;;17.00
68911;BMP180;55953;51.650;-0.522;2022-08-21T00:19:19;100726.00;;;17.10
68911;BMP180;55953;51.650;-0.522;2022-08-21T00:21:48;100726.00;;;17.00
68911;BMP180;55953;51.650;-0.522;2022-08-21T00:24:16;100720.00;;;17.06
68911;BMP180;55953;51.650;-0.522;2022-08-21T00:26:44;100716.60;;;17.10
68911;BMP180;55953;51.650;-0.522;2022-08-21T00:29:12;100716.80;;;17.10
68911;BMP180;55953;51.650;-0.522;2022-08-21T00:31:42;100712.80;;;17.10
68911;BMP180;55953;51.650;-0.522;2022-08-21T00:34:13;100708.20;;;17.00
68911;BMP180;55953;51.650;-0.522;2022-08-21T00:36:41;100710.00;;;17.00
68911;BMP180;55953;51.650;-0.522;2022-08-21T00:39:09;100709.00;;;16.96
68911;BMP180;55953;51.650;-0.522;2022-08-21T00:41:39;100709.80;;;17.00
68911;BMP180;55953;51.650;-0.522;2022-08-21T00:44:11;100703.20;;;16.96
68911;BMP180;55953;51.650;-0.522;2022-08-21T00:46:42;100696.60;;;16.98
68911;BMP180;55953;51.650;-0.522;2022-08-21T00:49:12;100697.20;;;17.00
68911;BMP180;55953;51.650;-0.522;2022-08-21T00:51:51;100689.00;;;17.00
68911;BMP180;55953;51.650;-0.522;2022-08-21T00:54:24;100687.20;;;17.00
68911;BMP180;55953;51.650;-0.522;2022-08-21T00:56:59;100684.20;;;17.00
68911;BMP180;55953;51.650;-0.522;2022-08-21T00:59:34;100683.80;;;17.00
68911;BMP180;55953;51.650;-0.522;2022-08-21T01:02:06;100684.00;;;17.00
68911;BMP180;55953;51.650;-0.522;2022-08-21T01:04:35;100678.20;;;17.00
68911;BMP180;55953;51.650;-0.522;2022-08-21T01:07:03;100677.60;;;17.00
68911;BMP180;55953;51.650;-0.522;2022-08-21T01:09:32;100668.20;;;16.90
68911;BMP180;55953;51.650;-0.522;2022-08-21T01:12:00;100673.80;;;16.80
68911;BMP180;55953;51.650;-0.522;2022-08-21T01:14:28;100682.60;;;16.70
68911;BMP180;55953;51.650;-0.522;2022-08-21T01:17:00;100687.60;;;16.70
68911;BMP180;55953;51.650;-0.522;2022-08-21T01:19:29;100688.20;;;16.60
68911;BMP180;55953;51.650;-0.522;2022-08-21T01:21:57;100687.60;;;16.60
68911;BMP180;55953;51.650;-0.522;2022-08-21T01:24:27;100687.40;;;16.50
68911;BMP180;55953;51.650;-0.522;2022-08-21T01:26:55;100689.60;;;16.40
68911;BMP180;55953;51.650;-0.522;2022-08-21T01:29:39;100691.00;;;16.30
68911;BMP180;55953;51.650;-0.522;2022-08-21T01:32:17;100697.40;;;16.30
68911;BMP180;55953;51.650;-0.522;2022-08-21T01:34:49;100700.80;;;16.30
68911;BMP180;55953;51.650;-0.522;2022-08-21T01:37:21;100702.40;;;16.20
68911;BMP180;55953;51.650;-0.522;2022-08-21T01:39:49;100697.40;;;16.10
68911;BMP180;55953;51.650;-0.522;2022-08-21T01:42:20;100700.60;;;16.10
68911;BMP180;55953;51.650;-0.522;2022-08-21T01:44:48;100702.00;;;16.00
68911;BMP180;55953;51.650;-0.522;2022-08-21T01:47:21;100702.40;;;15.90
68911;BMP180;55953;51.650;-0.522;2022-08-21T01:49:49;100705.20;;;15.90
68911;BMP180;55953;51.650;-0.522;2022-08-21T01:52:18;100711.00;;;15.90
68911;BMP180;55953;51.650;-0.522;2022-08-21T01:54:46;100708.80;;;15.82
68911;BMP180;55953;51.650;-0.522;2022-08-21T01:57:23;100710.00;;;15.80
68911;BMP180;55953;51.650;-0.522;2022-08-21T01:59:53;100701.80;;;15.80
68911;BMP180;55953;51.650;-0.522;2022-08-21T02:02:22;100698.20;;;15.80
68911;BMP180;55953;51.650;-0.522;2022-08-21T02:04:50;100693.80;;;15.80
68911;BMP180;55953;51.650;-0.522;2022-08-21T02:07:17;100690.40;;;15.72
68911;BMP180;55953;51.650;-0.522;2022-08-21T02:09:46;100687.60;;;15.72
68911;BMP180;55953;51.650;-0.522;2022-08-21T02:12:14;100686.60;;;15.80
68911;BMP180;55953;51.650;-0.522;2022-08-21T02:14:41;100688.20;;;15.80
68911;BMP180;55953;51.650;-0.522;2022-08-21T02:17:09;100680.60;;;15.80
68911;BMP180;55953;51.650;-0.522;2022-08-21T02:19:37;100679.80;;;15.80
68911;BMP180;55953;51.650;-0.522;2022-08-21T02:22:11;100690.40;;;15.80
68911;BMP180;55953;51.650;-0.522;2022-08-21T02:24:39;100689.60;;;15.80
68911;BMP180;55953;51.650;-0.522;2022-08-21T02:27:24;100688.00;;;15.80
68911;BMP180;55953;51.650;-0.522;2022-08-21T02:29:57;100684.40;;;15.80
68911;BMP180;55953;51.650;-0.522;2022-08-21T02:32:25;100677.80;;;15.72
68911;BMP180;55953;51.650;-0.522;2022-08-21T02:34:54;100680.60;;;15.70
68911;BMP180;55953;51.650;-0.522;2022-08-21T02:37:23;100686.80;;;15.70
68911;BMP180;55953;51.650;-0.522;2022-08-21T02:39:51;100682.00;;;15.70
68911;BMP180;55953;51.650;-0.522;2022-08-21T02:42:20;100681.40;;;15.70
68911;BMP180;55953;51.650;-0.522;2022-08-21T02:44:48;100679.60;;;15.70
68911;BMP180;55953;51.650;-0.522;2022-08-21T02:47:15;100679.20;;;15.70
68911;BMP180;55953;51.650;-0.522;2022-08-21T02:49:43;100677.60;;;15.70
68911;BMP180;55953;51.650;-0.522;2022-08-21T02:52:11;100671.40;;;15.70
68911;BMP180;55953;51.650;-0.522;2022-08-21T02:54:39;100673.20;;;15.70
68911;BMP180;55953;51.650;-0.522;2022-08-21T02:57:07;100676.60;;;15.70
68911;BMP180;55953;51.650;-0.522;2022-08-21T02:59:35;100677.80;;;15.60
68911;BMP180;55953;51.650;-0.522;2022-08-21T03:02:04;100682.20;;;15.52
68911;BMP180;55953;51.650;-0.522;2022-08-21T03:04:32;100684.20;;;15.50
68911;BMP180;55953;51.650;-0.522;2022-08-21T03:07:00;100685.40;;;15.50
68911;BMP180;55953;51.650;-0.522;2022-08-21T03:09:28;100683.00;;;15.50
68911;BMP180;55953;51.650;-0.522;2022-08-21T03:11:56;100682.40;;;15.40
68911;BMP180;55953;51.650;-0.522;2022-08-21T03:14:25;100687.40;;;15.40
68911;BMP180;55953;51.650;-0.522;2022-08-21T03:16:53;100684.00;;;15.40
68911;BMP180;55953;51.650;-0.522;2022-08-21T03:19:20;100687.80;;;15.30
68911;BMP180;55953;51.650;-0.522;2022-08-21T03:21:48;100684.00;;;15.30
68911;BMP180;55953;51.650;-0.522;2022-08-21T03:24:16;100682.40;;;15.30
68911;BMP180;55953;51.650;-0.522;2022-08-21T03:26:48;100675.20;;;15.32
68911;BMP180;55953;51.650;-0.522;2022-08-21T03:29:16;100673.80;;;15.30
68911;BMP180;55953;51.650;-0.522;2022-08-21T03:31:44;100683.00;;;15.30
68911;BMP180;55953;51.650;-0.522;2022-08-21T03:34:12;100676.00;;;15.22
68911;BMP180;55953;51.650;-0.522;2022-08-21T03:36:40;100674.60;;;15.22
68911;BMP180;55953;51.650;-0.522;2022-08-21T03:39:08;100671.20;;;15.20
68911;BMP180;55953;51.650;-0.522;2022-08-21T03:41:35;100677.00;;;15.30
68911;BMP180;55953;51.650;-0.522;2022-08-21T03:44:04;100672.60;;;15.30
68911;BMP180;55953;51.650;-0.522;2022-08-21T03:46:32;100683.00;;;15.30
68911;BMP180;55953;51.650;-0.522;2022-08-21T03:49:00;100679.00;;;15.20
68911;BMP180;55953;51.650;-0.522;2022-08-21T03:51:28;100685.40;;;15.20
68911;BMP180;55953;51.650;-0.522;2022-08-21T03:53:56;100682.60;;;15.26
68911;BMP180;55953;51.650;-0.522;2022-08-21T03:56:24;100682.60;;;15.20
68911;BMP180;55953;51.650;-0.522;2022-08-21T03:58:52;100682.20;;;15.20
68911;BMP180;55953;51.650;-0.522;2022-08-21T04:01:20;100679.60;;;15.20
68911;BMP180;55953;51.650;-0.522;2022-08-21T04:03:48;100675.60;;;15.20
68911;BMP180;55953;51.650;-0.522;2022-08-21T04:06:15;100678.00;;;15.20
68911;BMP180;55953;51.650;-0.522;2022-08-21T04:08:43;100676.00;;;15.20
68911;BMP180;55953;51.650;-0.522;2022-08-21T04:11:12;100673.80;;;15.20
68911;BMP180;55953;51.650;-0.522;2022-08-21T04:13:40;100675.80;;;15.10
68911;BMP180;55953;51.650;-0.522;2022-08-21T04:16:12;100675.00;;;15.10
68911;BMP180;55953;51.650;-0.522;2022-08-21T04:18:40;100673.20;;;15.10
68911;BMP180;55953;51.650;-0.522;2022-08-21T04:21:11;100670.80;;;15.10
68911;BMP180;55953;51.650;-0.522;2022-08-21T04:23:40;100671.40;;;15.12
68911;BMP180;55953;51.650;-0.522;2022-08-21T04:26:09;100667.00;;;15.20
68911;BMP180;55953;51.650;-0.522;2022-08-21T04:28:37;100665.60;;;15.20
68911;BMP180;55953;51.650;-0.522;2022-08-21T04:31:05;100663.20;;;15.18
68911;BMP180;55953;51.650;-0.522;2022-08-21T04:33:34;100660.20;;;15.18
68911;BMP180;55953;51.650;-0.522;2022-08-21T04:36:03;100667.20;;;15.10
68911;BMP180;55953;51.650;-0.522;2022-08-21T04:38:31;100669.40;;;15.20
68911;BMP180;55953;51.650;-0.522;2022-08-21T04:41:04;100675.40;;;15.10
68911;BMP180;55953;51.650;-0.522;2022-08-21T04:43:34;100667.40;;;15.04
68911;BMP180;55953;51.650;-0.522;2022-08-21T04:46:02;100677.60;;;15.00
68911;BMP180;55953;51.650;-0.522;2022-08-21T04:48:31;100674.60;;;14.90
68911;BMP180;55953;51.650;-0.522;2022-08-21T04:51:18;100676.40;;;14.90
68911;BMP180;55953;51.650;-0.522;2022-08-21T04:53:59;100677.20;;;14.90
68911;BMP180;55953;51.650;-0.522;2022-08-21T04:56:41;100679.20;;;14.90
68911;BMP180;55953;51.650;-0.522;2022-08-21T04:59:18;100679.00;;;14.80
68911;BMP180;55953;51.650;-0.522;2022-08-21T05:01:50;100677.20;;;14.80
68911;BMP180;55953;51.650;-0.522;2022-08-21T05:04:24;100677.60;;;14.80
68911;BMP180;55953;51.650;-0.522;2022-08-21T05:06:57;100679.00;;;14.80
68911;BMP180;55953;51.650;-0.522;2022-08-21T05:09:28;100684.00;;;14.80
68911;BMP180;55953;51.650;-0.522;2022-08-21T05:11:56;100681.80;;;14.80
68911;BMP180;55953;51.650;-0.522;2022-08-21T05:14:25;100677.00;;;14.80
68911;BMP180;55953;51.650;-0.522;2022-08-21T05:16:54;100676.20;;;14.80
68911;BMP180;55953;51.650;-0.522;2022-08-21T05:19:22;100681.00;;;14.80
68911;BMP180;55953;51.650;-0.522;2022-08-21T05:21:51;100690.40;;;14.80
68911;BMP180;55953;51.650;-0.522;2022-08-21T05:24:19;100692.20;;;14.80
68911;BMP180;55953;51.650;-0.522;2022-08-21T05:26:47;100699.80;;;14.80
68911;BMP180;55953;51.650;-0.522;2022-08-21T05:29:16;100706.20;;;14.80
68911;BMP180;55953;51.650;-0.522;2022-08-21T05:31:46;100704.60;;;14.74
68911;BMP180;55953;51.650;-0.522;2022-08-21T05:34:19;100708.80;;;14.80
68911;BMP180;55953;51.650;-0.522;2022-08-21T05:36:48;100708.00;;;14.80
68911;BMP180;55953;51.650;-0.522;2022-08-21T05:39:16;100713.40;;;14.80
68911;BMP180;55953;51.650;-0.522;2022-08-21T05:41:43;100714.40;;;14.90
68911;BMP180;55953;51.650;-0.522;2022-08-21T05:44:11;100717.60;;;14.90
68911;BMP180;55953;51.650;-0.522;2022-08-21T05:46:40;100727.00;;;15.00
68911;BMP180;55953;51.650;-0.522;2022-08-21T05:49:08;100719.20;;;15.00
68911;BMP180;55953;51.650;-0.522;2022-08-21T05:51:36;100726.20;;;15.10
68911;BMP180;55953;51.650;-0.522;2022-08-21T05:54:07;100718.40;;;15.20
68911;BMP180;55953;51.650;-0.522;2022-08-21T05:56:35;100715.20;;;15.30
68911;BMP180;55953;51.650;-0.522;2022-08-21T05:59:03;100722.40;;;15.40
68911;BMP180;55953;51.650;-0.522;2022-08-21T06:01:35;100731.20;;;15.50
68911;BMP180;55953;51.650;-0.522;2022-08-21T06:04:03;100729.20;;;15.60
68911;BMP180;55953;51.650;-0.522;2022-08-21T06:06:31;100733.40;;;15.60
68911;BMP180;55953;51.650;-0.522;2022-08-21T06:09:00;100724.60;;;15.70
68911;BMP180;55953;51.650;-0.522;2022-08-21T06:11:28;100716.80;;;15.70
68911;BMP180;55953;51.650;-0.522;2022-08-21T06:13:57;100718.00;;;15.80
68911;BMP180;55953;51.650;-0.522;2022-08-21T06:16:27;100725.60;;;15.86
68911;BMP180;55953;51.650;-0.522;2022-08-21T06:18:54;100721.40;;;15.90
68911;BMP180;55953;51.650;-0.522;2022-08-21T06:21:29;100723.60;;;15.94
68911;BMP180;55953;51.650;-0.522;2022-08-21T06:23:57;100717.20;;;16.00
68911;BMP180;55953;51.650;-0.522;2022-08-21T06:26:25;100722.40;;;16.10
68911;BMP180;55953;51.650;-0.522;2022-08-21T06:28:53;100715.60;;;16.10
68911;BMP180;55953;51.650;-0.522;2022-08-21T06:31:24;100721.60;;;16.20
68911;BMP180;55953;51.650;-0.522;2022-08-21T06:33:53;100714.80;;;16.30
68911;BMP180;55953;51.650;-0.522;2022-08-21T06:36:22;100717.20;;;16.38
68911;BMP180;55953;51.650;-0.522;2022-08-21T06:38:49;100711.60;;;16.40
68911;BMP180;55953;51.650;-0.522;2022-08-21T06:41:20;100706.80;;;16.48
68911;BMP180;55953;51.650;-0.522;2022-08-21T06:43:55;100697.80;;;16.50
68911;BMP180;55953;51.650;-0.522;2022-08-21T06:46:29;100703.40;;;16.60
68911;BMP180;55953;51.650;-0.522;2022-08-21T06:48:57;100702.20;;;16.70
68911;BMP180;55953;51.650;-0.522;2022-08-21T06:51:26;100703.60;;;16.80
68911;BMP180;55953;51.650;-0.522;2022-08-21T06:53:55;100700.40;;;16.90
68911;BMP180;55953;51.650;-0.522;2022-08-21T06:56:26;100706.20;;;17.00
68911;BMP180;55953;51.650;-0.522;2022-08-21T06:58:54;100705.20;;;17.10
68911;BMP180;55953;51.650;-0.522;2022-08-21T07:01:25;100699.60;;;17.20
68911;BMP180;55953;51.650;-0.522;2022-08-21T07:03:54;100696.20;;;17.20
68911;BMP180;55953;51.650;-0.522;2022-08-21T07:06:23;100688.60;;;17.26
68911;BMP180;55953;51.650;-0.522;2022-08-21T07:08:52;100695.40;;;17.30
68911;BMP180;55953;51.650;-0.522;2022-08-21T07:11:23;100695.40;;;17.40
68911;BMP180;55953;51.650;-0.522;2022-08-21T07:13:52;100696.20;;;17.46
68911;BMP180;55953;51.650;-0.522;2022-08-21T07:16:22;100695.60;;;17.50
68911;BMP180;55953;51.650;-0.522;2022-08-21T07:18:51;100698.80;;;17.60
68911;BMP180;55953;51.650;-0.522;2022-08-21T07:21:19;100691.00;;;17.70
68911;BMP180;55953;51.650;-0.522;2022-08-21T07:23:53;100688.60;;;17.70
68911;BMP180;55953;51.650;-0.522;2022-08-21T07:26:23;100689.00;;;17.80
68911;BMP180;55953;51.650;-0.522;2022-08-21T07:28:53;100695.00;;;17.90
68911;BMP180;55953;51.650;-0.522;2022-08-21T07:31:24;100695.80;;;17.94
68911;BMP180;55953;51.650;-0.522;2022-08-21T07:33:53;100699.60;;;18.00
68911;BMP180;55953;51.650;-0.522;2022-08-21T07:36:22;100701.00;;;18.10
68911;BMP180;55953;51.650;-0.522;2022-08-21T07:38:50;100695.00;;;18.10
68911;BMP180;55953;51.650;-0.522;2022-08-21T07:41:26;100689.20;;;18.20
68911;BMP180;55953;51.650;-0.522;2022-08-21T07:43:58;100689.60;;;18.20
68911;BMP180;55953;51.650;-0.522;2022-08-21T07:46:27;100685.60;;;18.20
68911;BMP180;55953;51.650;-0.522;2022-08-21T07:48:55;100684.00;;;18.22
68911;BMP180;55953;51.650;-0.522;2022-08-21T07:51:28;100677.20;;;18.30
68911;BMP180;55953;51.650;-0.522;2022-08-21T07:53:58;100684.00;;;18.40
68911;BMP180;55953;51.650;-0.522;2022-08-21T07:56:29;100681.40;;;18.50
68911;BMP180;55953;51.650;-0.522;2022-08-21T07:58:57;100683.60;;;18.50
68911;BMP180;55953;51.650;-0.522;2022-08-21T08:01:26;100686.60;;;18.60
68911;BMP180;55953;51.650;-0.522;2022-08-21T08:03:55;100684.20;;;18.66
68911;BMP180;55953;51.650;-0.522;2022-08-21T08:06:23;100684.00;;;18.70
68911;BMP180;55953;51.650;-0.522;2022-08-21T08:08:51;100679.80;;;18.78
68911;BMP180;55953;51.650;-0.522;2022-08-21T08:11:19;100689.00;;;18.80
68911;BMP180;55953;51.650;-0.522;2022-08-21T08:13:51;100688.00;;;18.88
68911;BMP180;55953;51.650;-0.522;2022-08-21T08:16:19;100690.40;;;18.90
68911;BMP180;55953;51.650;-0.522;2022-08-21T08:18:47;100690.80;;;19.00
68911;BMP180;55953;51.650;-0.522;2022-08-21T08:21:15;100684.00;;;19.10
68911;BMP180;55953;51.650;-0.522;2022-08-21T08:23:43;100675.40;;;19.14
68911;BMP180;55953;51.650;-0.522;2022-08-21T08:26:13;100667.40;;;19.20
68911;BMP180;55953;51.650;-0.522;2022-08-21T08:28:43;100668.80;;;19.30
68911;BMP180;55953;51.650;-0.522;2022-08-21T08:31:11;100671.20;;;19.38
68911;BMP180;55953;51.650;-0.522;2022-08-21T08:33:40;100673.20;;;19.40
68911;BMP180;55953;51.650;-0.522;2022-08-21T08:36:16;100670.80;;;19.50
68911;BMP180;55953;51.650;-0.522;2022-08-21T08:38:47;100670.20;;;19.50
68911;BMP180;55953;51.650;-0.522;2022-08-21T08:41:19;100676.20;;;19.70
68911;BMP180;55953;51.650;-0.522;2022-08-21T08:44:03;100671.20;;;19.80
68911;BMP180;55953;51.650;-0.522;2022-08-21T08:46:50;100671.60;;;19.90
68911;BMP180;55953;51.650;-0.522;2022-08-21T08:49:34;100669.00;;;20.24
68911;BMP180;55953;51.650;-0.522;2022-08-21T08:52:28;100675.00;;;20.50
68911;BMP180;55953;51.650;-0.522;2022-08-21T08:55:42;100669.60;;;20.70
68911;BMP180;55953;51.650;-0.522;2022-08-21T08:58:31;100668.20;;;20.80
68911;BMP180;55953;51.650;-0.522;2022-08-21T09:01:00;100669.40;;;21.00
68911;BMP180;55953;51.650;-0.522;2022-08-21T09:03:29;100673.20;;;21.12
68911;BMP180;55953;51.650;-0.522;2022-08-21T09:06:15;100672.20;;;21.20
68911;BMP180;55953;51.650;-0.522;2022-08-21T09:15:19;100681.40;;;21.50
68911;BMP180;55953;51.650;-0.522;2022-08-21T09:21:41;100680.20;;;21.50
68911;BMP180;55953;51.650;-0.522;2022-08-21T09:25:01;100686.20;;;21.60
68911;BMP180;55953;51.650;-0.522;2022-08-21T09:27:31;100692.60;;;21.70
68911;BMP180;55953;51.650;-0.522;2022-08-21T09:29:59;100693.20;;;21.70
68911;BMP180;55953;51.650;-0.522;2022-08-21T09:32:30;100691.40;;;21.80
68911;BMP180;55953;51.650;-0.522;2022-08-21T09:35:24;100693.80;;;21.94
68911;BMP180;55953;51.650;-0.522;2022-08-21T09:38:06;100695.80;;;22.20
68911;BMP180;55953;51.650;-0.522;2022-08-21T09:43:18;100693.20;;;22.10
68911;BMP180;55953;51.650;-0.522;2022-08-21T09:46:02;100692.80;;;22.20
68911;BMP180;55953;51.650;-0.522;2022-08-21T09:48:47;100699.60;;;22.20
68911;BMP180;55953;51.650;-0.522;2022-08-21T09:51:21;100700.40;;;22.20
68911;BMP180;55953;51.650;-0.522;2022-08-21T09:56:54;100705.00;;;22.30
68911;BMP180;55953;51.650;-0.522;2022-08-21T09:59:44;100701.60;;;22.42
68911;BMP180;55953;51.650;-0.522;2022-08-21T10:02:29;100693.80;;;22.60
68911;BMP180;55953;51.650;-0.522;2022-08-21T10:05:16;100692.20;;;22.90
68911;BMP180;55953;51.650;-0.522;2022-08-21T10:07:45;100693.00;;;23.14
68911;BMP180;55953;51.650;-0.522;2022-08-21T10:10:20;100687.60;;;23.38
68911;BMP180;55953;51.650;-0.522;2022-08-21T10:12:58;100683.40;;;23.60
68911;BMP180;55953;51.650;-0.522;2022-08-21T10:16:04;100688.00;;;23.62
68911;BMP180;55953;51.650;-0.522;2022-08-21T10:21:43;100686.80;;;23.70
68911;BMP180;55953;51.650;-0.522;2022-08-21T10:24:57;100685.60;;;23.50
68911;BMP180;55953;51.650;-0.522;2022-08-21T10:35:57;100686.80;;;23.20
68911;BMP180;55953;51.650;-0.522;2022-08-21T10:47:15;100683.00;;;23.00
68911;BMP180;55953;51.650;-0.522;2022-08-21T10:53:19;100681.60;;;22.80
68911;BMP180;55953;51.650;-0.522;2022-08-21T10:56:05;100681.40;;;22.72
68911;BMP180;55953;51.650;-0.522;2022-08-21T10:58:45;100684.80;;;22.60
68911;BMP180;55953;51.650;-0.522;2022-08-21T11:01:24;100681.80;;;22.48
68911;BMP180;55953;51.650;-0.522;2022-08-21T11:04:23;100686.40;;;22.30
68911;BMP180;55953;51.650;-0.522;2022-08-21T11:07:18;100679.80;;;22.10
68911;BMP180;55953;51.650;-0.522;2022-08-21T11:09:49;100682.80;;;22.00
68911;BMP180;55953;51.650;-0.522;2022-08-21T11:12:39;100689.00;;;21.90
68911;BMP180;55953;51.650;-0.522;2022-08-21T11:15:45;100693.60;;;21.80
68911;BMP180;55953;51.650;-0.522;2022-08-21T11:24:34;100692.40;;;21.80
68911;BMP180;55953;51.650;-0.522;2022-08-21T11:27:50;100701.40;;;21.90
68911;BMP180;55953;51.650;-0.522;2022-08-21T11:30:20;100701.60;;;22.00
68911;BMP180;55953;51.650;-0.522;2022-08-21T11:36:00;100702.60;;;22.20
68911;BMP180;55953;51.650;-0.522;2022-08-21T11:38:41;100696.60;;;22.20
68911;BMP180;55953;51.650;-0.522;2022-08-21T11:46:57;100703.00;;;22.20
68911;BMP180;55953;51.650;-0.522;2022-08-21T11:49:42;100702.40;;;22.30
68911;BMP180;55953;51.650;-0.522;2022-08-21T11:52:34;100702.00;;;22.40
68911;BMP180;55953;51.650;-0.522;2022-08-21T11:55:19;100698.80;;;22.60
68911;BMP180;55953;51.650;-0.522;2022-08-21T11:58:27;100693.40;;;22.90
68911;BMP180;55953;51.650;-0.522;2022-08-21T12:01:07;100690.80;;;23.30
68911;BMP180;55953;51.650;-0.522;2022-08-21T12:03:40;100687.00;;;23.58
68911;BMP180;55953;51.650;-0.522;2022-08-21T12:06:13;100682.80;;;23.90
68911;BMP180;55953;51.650;-0.522;2022-08-21T12:09:04;100681.20;;;24.06
68911;BMP180;55953;51.650;-0.522;2022-08-21T12:11:48;100687.80;;;24.30
68911;BMP180;55953;51.650;-0.522;2022-08-21T12:14:18;100689.60;;;24.50
68911;BMP180;55953;51.650;-0.522;2022-08-21T12:16:49;100690.00;;;24.50
68911;BMP180;55953;51.650;-0.522;2022-08-21T12:21:53;100687.20;;;24.06
68911;BMP180;55953;51.650;-0.522;2022-08-21T12:24:40;100689.20;;;24.00
68911;BMP180;55953;51.650;-0.522;2022-08-21T12:27:29;100686.00;;;24.10
68911;BMP180;55953;51.650;-0.522;2022-08-21T12:30:05;100686.60;;;24.20
68911;BMP180;55953;51.650;-0.522;2022-08-21T12:35:18;100683.80;;;23.80
68911;BMP180;55953;51.650;-0.522;2022-08-21T12:38:17;100678.40;;;24.00
68911;BMP180;55953;51.650;-0.522;2022-08-21T12:40:53;100679.00;;;24.26
68911;BMP180;55953;51.650;-0.522;2022-08-21T12:43:38;100678.20;;;24.40
68911;BMP180;55953;51.650;-0.522;2022-08-21T12:46:19;100673.60;;;24.44
68911;BMP180;55953;51.650;-0.522;2022-08-21T12:48:55;100676.80;;;24.30
68911;BMP180;55953;51.650;-0.522;2022-08-21T12:52:28;100672.80;;;24.00
68911;BMP180;55953;51.650;-0.522;2022-08-21T12:55:04;100666.60;;;23.88
68911;BMP180;55953;51.650;-0.522;2022-08-21T12:57:35;100661.20;;;23.90
68911;BMP180;55953;51.650;-0.522;2022-08-21T13:00:08;100664.00;;;24.02
68911;BMP180;55953;51.650;-0.522;2022-08-21T13:02:49;100664.60;;;24.26
68911;BMP180;55953;51.650;-0.522;2022-08-21T13:05:32;100662.00;;;24.30
68911;BMP180;55953;51.650;-0.522;2022-08-21T13:08:11;100668.60;;;24.28
68911;BMP180;55953;51.650;-0.522;2022-08-21T13:10:41;100668.20;;;24.30
68911;BMP180;55953;51.650;-0.522;2022-08-21T13:13:20;100664.00;;;24.32
68911;BMP180;55953;51.650;-0.522;2022-08-21T13:16:05;100662.00;;;24.60
68911;BMP180;55953;51.650;-0.522;2022-08-21T13:18:59;100662.80;;;24.70
68911;BMP180;55953;51.650;-0.522;2022-08-21T13:21:40;100654.40;;;24.70
68911;BMP180;55953;51.650;-0.522;2022-08-21T13:24:22;100649.20;;;24.90
68911;BMP180;55953;51.650;-0.522;2022-08-21T13:27:28;100641.20;;;25.10
68911;BMP180;55953;51.650;-0.522;2022-08-21T13:32:45;100645.20;;;25.20
68911;BMP180;55953;51.650;-0.522;2022-08-21T13:35:30;100642.20;;;25.30
68911;BMP180;55953;51.650;-0.522;2022-08-21T13:38:05;100643.40;;;25.40
68911;BMP180;55953;51.650;-0.522;2022-08-21T13:40:51;100642.40;;;25.50
68911;BMP180;55953;51.650;-0.522;2022-08-21T13:43:26;100637.00;;;25.30
68911;BMP180;55953;51.650;-0.522;2022-08-21T13:45:57;100633.60;;;25.10
68911;BMP180;55953;51.650;-0.522;2022-08-21T13:48:30;100628.80;;;25.28
68911;BMP180;55953;51.650;-0.522;2022-08-21T13:50:59;100632.20;;;25.60
68911;BMP180;55953;51.650;-0.522;2022-08-21T13:53:35;100637.60;;;25.70
68911;BMP180;55953;51.650;-0.522;2022-08-21T13:56:04;100635.60;;;25.60
68911;BMP180;55953;51.650;-0.522;2022-08-21T13:58:45;100637.00;;;25.60
68911;BMP180;55953;51.650;-0.522;2022-08-21T14:01:33;100634.80;;;25.60
68911;BMP180;55953;51.650;-0.522;2022-08-21T14:04:20;100628.00;;;25.50
68911;BMP180;55953;51.650;-0.522;2022-08-21T14:06:50;100622.20;;;25.60
68911;BMP180;55953;51.650;-0.522;2022-08-21T14:09:39;100623.20;;;25.80
68911;BMP180;55953;51.650;-0.522;2022-08-21T14:12:43;100629.60;;;25.80
68911;BMP180;55953;51.650;-0.522;2022-08-21T14:15:18;100622.00;;;25.74
68911;BMP180;55953;51.650;-0.522;2022-08-21T14:17:46;100622.00;;;26.00
68911;BMP180;55953;51.650;-0.522;2022-08-21T14:20:33;100622.40;;;26.20
68911;BMP180;55953;51.650;-0.522;2022-08-21T14:23:02;100621.60;;;26.00
68911;BMP180;55953;51.650;-0.522;2022-08-21T14:25:41;100619.80;;;25.70
68911;BMP180;55953;51.650;-0.522;2022-08-21T14:28:32;100617.00;;;25.56
68911;BMP180;55953;51.650;-0.522;2022-08-21T14:31:18;100619.20;;;25.40
68911;BMP180;55953;51.650;-0.522;2022-08-21T14:33:47;100610.40;;;25.46
68911;BMP180;55953;51.650;-0.522;2022-08-21T14:36:17;100616.60;;;25.60
68911;BMP180;55953;51.650;-0.522;2022-08-21T14:38:45;100617.80;;;25.60
68911;BMP180;55953;51.650;-0.522;2022-08-21T14:41:18;100612.60;;;25.50
68911;BMP180;55953;51.650;-0.522;2022-08-21T14:43:46;100606.80;;;25.50
68911;BMP180;55953;51.650;-0.522;2022-08-21T14:46:31;100611.80;;;25.50
68911;BMP180;55953;51.650;-0.522;2022-08-21T14:48:59;100612.00;;;25.60
68911;BMP180;55953;51.650;-0.522;2022-08-21T14:51:27;100610.60;;;25.50
68911;BMP180;55953;51.650;-0.522;2022-08-21T14:53:55;100610.80;;;25.60
68911;BMP180;55953;51.650;-0.522;2022-08-21T14:56:23;100611.20;;;25.62
68911;BMP180;55953;51.650;-0.522;2022-08-21T14:59:06;100608.20;;;25.80
68911;BMP180;55953;51.650;-0.522;2022-08-21T15:01:37;100606.40;;;25.80
68911;BMP180;55953;51.650;-0.522;2022-08-21T15:04:06;100600.80;;;25.70
68911;BMP180;55953;51.650;-0.522;2022-08-21T15:06:34;100596.20;;;25.76
68911;BMP180;55953;51.650;-0.522;2022-08-21T15:09:02;100597.40;;;25.90
68911;BMP180;55953;51.650;-0.522;2022-08-21T15:11:34;100596.20;;;25.80
68911;BMP180;55953;51.650;-0.522;2022-08-21T15:14:22;100598.60;;;25.70
68911;BMP180;55953;51.650;-0.522;2022-08-21T15:16:51;100595.00;;;25.60
68911;BMP180;55953;51.650;-0.522;2022-08-21T15:19:19;100596.80;;;25.42
68911;BMP180;55953;51.650;-0.522;2022-08-21T15:21:47;100591.40;;;25.40
68911;BMP180;55953;51.650;-0.522;2022-08-21T15:24:16;100595.00;;;25.20